Huvudsida
METAR-TAF:

METAR-TAF

Flygplatser :

Forūdgāh-e Kermān

Kerman, Iran

latitud: 30-15N, longitud: 056-58E, höjd: 1748 m

Aktuellt väderrapport

Denna rapport gjordes för 48 minuter sedan, klockan 14:00 UTC
Vind 6 kt från nord/nordost
Temperatur 35°C
Fuktighet 5%
Tryck 1016 hPa
Sikt 10 km eller mer
Få moln på en höjd av 4500 ft

METAR: OIKK 261400Z 03006KT 9999 FEW045 35/M10 Q1016 A3001

Tid: 19:18 (14:48 UTC)

Väderprognos

Denna rapport gjordes för 3 timmar och 18 minuter sedan, klockan 11:30 UTC
Prognos gäller från 26 kl. 12 UTC till 27 kl. 18 UTC
Vind 8 kt från nord
Sikt: 7000 m
Temporärt
från 26 kl. 12 UTC till 26 kl. 15 UTC
Vind 16 kt från nord/nordost i byarna ända upp till 26 kt
Sikt: 4000 m
sand
Temporärt
från 27 kl. 10 UTC till 27 kl. 17 UTC
Vind 20 kt från ost i byarna ända upp till 30 kt
Sikt: 3000 m
sand

TAF: OIKK 261130Z 2612/2718 36008KT 7000 NSC TEMPO 2612/2615 03016G26KT 4000 SA TEMPO 2710/2717 09020G30KT 3000 SA

Aktuella väderrapporter och prognoser från 4000 flygplatser (METAR- och TAF-rapporter).

De tillgängliga stationerna syns som gula och röda prickar på kartan.

För musen över prickarna för att se namnen på stationerna.

Klicka sedan för att få väderrapporter och prognoser.

För att ändra kartan: Klicka på de gröna knapparna med ett svart kors på för att zooma in; den gröna knappen med ett streck på för att zooma ut; eller på de gröna pilarna för angränsande kartor.


METAR-TAF: